sensor_id;sensor_type;location;lat;lon;timestamp;P1;durP1;ratioP1;P2;durP2;ratioP2
79779;SDS011;69258;52.050;10.334;2023-05-10T00:06:33;1.33;;;1.20;;
79779;SDS011;69258;52.050;10.334;2023-05-10T00:21:35;1.30;;;1.20;;
79779;SDS011;69258;52.050;10.334;2023-05-10T00:36:37;1.50;;;1.40;;
79779;SDS011;69258;52.050;10.334;2023-05-10T00:51:38;1.30;;;1.30;;
79779;SDS011;69258;52.050;10.334;2023-05-10T01:06:41;1.40;;;1.30;;
79779;SDS011;69258;52.050;10.334;2023-05-10T01:21:53;1.20;;;1.20;;
79779;SDS011;69258;52.050;10.334;2023-05-10T01:37:02;1.50;;;1.40;;
79779;SDS011;69258;52.050;10.334;2023-05-10T01:52:10;1.33;;;1.23;;
79779;SDS011;69258;52.050;10.334;2023-05-10T02:07:15;1.40;;;1.30;;
79779;SDS011;69258;52.050;10.334;2023-05-10T02:22:17;1.50;;;1.40;;
79779;SDS011;69258;52.050;10.334;2023-05-10T02:37:21;1.73;;;1.40;;
79779;SDS011;69258;52.050;10.334;2023-05-10T02:52:25;1.30;;;1.20;;
79779;SDS011;69258;52.050;10.334;2023-05-10T03:07:32;1.40;;;1.30;;
79779;SDS011;69258;52.050;10.334;2023-05-10T03:22:37;1.50;;;1.40;;
79779;SDS011;69258;52.050;10.334;2023-05-10T03:37:41;1.37;;;1.30;;
79779;SDS011;69258;52.050;10.334;2023-05-10T03:52:42;1.30;;;1.30;;
79779;SDS011;69258;52.050;10.334;2023-05-10T04:07:44;1.70;;;1.60;;
79779;SDS011;69258;52.050;10.334;2023-05-10T04:22:46;1.37;;;1.33;;
79779;SDS011;69258;52.050;10.334;2023-05-10T04:37:47;1.30;;;1.20;;
79779;SDS011;69258;52.050;10.334;2023-05-10T04:52:49;1.27;;;1.27;;
79779;SDS011;69258;52.050;10.334;2023-05-10T05:07:53;1.50;;;1.40;;
79779;SDS011;69258;52.050;10.334;2023-05-10T05:22:55;1.87;;;1.67;;
79779;SDS011;69258;52.050;10.334;2023-05-10T05:37:56;1.50;;;1.40;;
79779;SDS011;69258;52.050;10.334;2023-05-10T05:52:58;1.50;;;1.40;;
79779;SDS011;69258;52.050;10.334;2023-05-10T06:08:00;1.40;;;1.30;;
79779;SDS011;69258;52.050;10.334;2023-05-10T06:23:01;1.20;;;1.20;;
79779;SDS011;69258;52.050;10.334;2023-05-10T06:38:03;1.50;;;1.40;;
79779;SDS011;69258;52.050;10.334;2023-05-10T06:53:05;1.50;;;1.40;;
79779;SDS011;69258;52.050;10.334;2023-05-10T07:08:07;1.50;;;1.40;;
79779;SDS011;69258;52.050;10.334;2023-05-10T07:23:08;1.40;;;1.30;;
79779;SDS011;69258;52.050;10.334;2023-05-10T07:38:10;1.60;;;1.50;;
79779;SDS011;69258;52.050;10.334;2023-05-10T07:53:12;1.70;;;1.60;;
79779;SDS011;69258;52.050;10.334;2023-05-10T08:08:13;1.83;;;1.73;;
79779;SDS011;69258;52.050;10.334;2023-05-10T08:23:15;1.50;;;1.40;;
79779;SDS011;69258;52.050;10.334;2023-05-10T08:38:17;1.57;;;1.47;;
79779;SDS011;69258;52.050;10.334;2023-05-10T08:53:19;1.50;;;1.40;;
79779;SDS011;69258;52.050;10.334;2023-05-10T09:08:23;1.53;;;1.43;;
79779;SDS011;69258;52.050;10.334;2023-05-10T09:23:25;1.60;;;1.50;;
79779;SDS011;69258;52.050;10.334;2023-05-10T09:38:27;1.60;;;1.50;;
79779;SDS011;69258;52.050;10.334;2023-05-10T09:53:29;1.43;;;1.33;;
79779;SDS011;69258;52.050;10.334;2023-05-10T10:08:30;1.60;;;1.50;;
79779;SDS011;69258;52.050;10.334;2023-05-10T10:23:33;1.50;;;1.40;;
79779;SDS011;69258;52.050;10.334;2023-05-10T10:38:36;1.67;;;1.57;;
79779;SDS011;69258;52.050;10.334;2023-05-10T10:53:39;1.60;;;1.50;;
79779;SDS011;69258;52.050;10.334;2023-05-10T11:08:42;1.60;;;1.50;;
79779;SDS011;69258;52.050;10.334;2023-05-10T11:23:48;1.77;;;1.60;;
79779;SDS011;69258;52.050;10.334;2023-05-10T11:38:52;1.50;;;1.40;;
79779;SDS011;69258;52.050;10.334;2023-05-10T11:53:55;1.50;;;1.40;;
79779;SDS011;69258;52.050;10.334;2023-05-10T12:08:58;1.50;;;1.40;;
79779;SDS011;69258;52.050;10.334;2023-05-10T12:24:01;1.50;;;1.40;;
79779;SDS011;69258;52.050;10.334;2023-05-10T12:39:04;1.40;;;1.40;;
79779;SDS011;69258;52.050;10.334;2023-05-10T12:54:06;1.50;;;1.40;;
79779;SDS011;69258;52.050;10.334;2023-05-10T13:09:07;1.33;;;1.23;;
79779;SDS011;69258;52.050;10.334;2023-05-10T13:24:10;1.47;;;1.37;;
79779;SDS011;69258;52.050;10.334;2023-05-10T13:39:12;1.33;;;1.30;;
79779;SDS011;69258;52.050;10.334;2023-05-10T13:54:14;1.43;;;1.33;;
79779;SDS011;69258;52.050;10.334;2023-05-10T14:09:16;1.27;;;1.17;;
79779;SDS011;69258;52.050;10.334;2023-05-10T14:24:17;1.40;;;1.30;;
79779;SDS011;69258;52.050;10.334;2023-05-10T14:39:19;1.33;;;1.30;;
79779;SDS011;69258;52.050;10.334;2023-05-10T14:54:21;1.20;;;1.20;;
79779;SDS011;69258;52.050;10.334;2023-05-10T15:09:23;1.17;;;1.17;;
79779;SDS011;69258;52.050;10.334;2023-05-10T15:24:24;1.20;;;1.20;;
79779;SDS011;69258;52.050;10.334;2023-05-10T15:39:26;1.20;;;1.20;;
79779;SDS011;69258;52.050;10.334;2023-05-10T15:54:28;1.20;;;1.20;;
79779;SDS011;69258;52.050;10.334;2023-05-10T16:09:30;1.40;;;1.30;;
79779;SDS011;69258;52.050;10.334;2023-05-10T16:24:31;1.30;;;1.20;;
79779;SDS011;69258;52.050;10.334;2023-05-10T16:39:33;1.30;;;1.20;;
79779;SDS011;69258;52.050;10.334;2023-05-10T16:54:44;1.10;;;1.10;;
79779;SDS011;69258;52.050;10.334;2023-05-10T17:09:46;1.07;;;1.07;;
79779;SDS011;69258;52.050;10.334;2023-05-10T17:24:48;1.30;;;1.20;;
79779;SDS011;69258;52.050;10.334;2023-05-10T17:39:49;1.00;;;1.00;;
79779;SDS011;69258;52.050;10.334;2023-05-10T17:54:51;1.20;;;1.20;;
79779;SDS011;69258;52.050;10.334;2023-05-10T18:09:53;1.30;;;1.20;;
79779;SDS011;69258;52.050;10.334;2023-05-10T18:24:54;1.00;;;1.00;;
79779;SDS011;69258;52.050;10.334;2023-05-10T18:39:56;1.00;;;1.00;;
79779;SDS011;69258;52.050;10.334;2023-05-10T18:54:58;1.10;;;1.10;;
79779;SDS011;69258;52.050;10.334;2023-05-10T19:09:59;1.07;;;1.07;;
79779;SDS011;69258;52.050;10.334;2023-05-10T19:25:01;1.00;;;1.00;;
79779;SDS011;69258;52.050;10.334;2023-05-10T19:40:03;1.00;;;1.00;;
79779;SDS011;69258;52.050;10.334;2023-05-10T19:55:05;1.00;;;1.00;;
79779;SDS011;69258;52.050;10.334;2023-05-10T20:10:07;1.10;;;1.10;;
79779;SDS011;69258;52.050;10.334;2023-05-10T20:25:10;1.27;;;1.20;;
79779;SDS011;69258;52.050;10.334;2023-05-10T20:40:12;1.23;;;1.23;;
79779;SDS011;69258;52.050;10.334;2023-05-10T20:55:13;0.93;;;0.93;;
79779;SDS011;69258;52.050;10.334;2023-05-10T21:10:15;1.10;;;1.10;;
79779;SDS011;69258;52.050;10.334;2023-05-10T21:25:17;1.10;;;1.10;;
79779;SDS011;69258;52.050;10.334;2023-05-10T21:40:19;1.20;;;1.20;;
79779;SDS011;69258;52.050;10.334;2023-05-10T21:55:21;1.03;;;1.03;;
79779;SDS011;69258;52.050;10.334;2023-05-10T22:10:23;1.10;;;1.10;;
79779;SDS011;69258;52.050;10.334;2023-05-10T22:25:24;1.20;;;1.20;;
79779;SDS011;69258;52.050;10.334;2023-05-10T22:40:26;1.10;;;1.10;;
79779;SDS011;69258;52.050;10.334;2023-05-10T22:55:28;1.10;;;1.10;;
79779;SDS011;69258;52.050;10.334;2023-05-10T23:10:30;1.10;;;1.10;;
79779;SDS011;69258;52.050;10.334;2023-05-10T23:25:32;0.93;;;0.93;;
79779;SDS011;69258;52.050;10.334;2023-05-10T23:40:35;1.20;;;1.20;;
79779;SDS011;69258;52.050;10.334;2023-05-10T23:55:37;1.13;;;1.13;;
